createdAt,value
2018-10-21T00:02:05.147Z,10.70
2018-10-21T00:04:33.591Z,10.70
2018-10-21T00:07:02.256Z,10.70
2018-10-21T00:09:30.800Z,10.70
2018-10-21T00:11:59.279Z,10.80
2018-10-21T00:14:27.793Z,10.80
2018-10-21T00:16:56.275Z,10.80
2018-10-21T00:19:24.751Z,10.90
2018-10-21T00:21:53.306Z,10.90
2018-10-21T00:24:21.804Z,10.90
2018-10-21T00:26:50.249Z,10.90
2018-10-21T00:29:18.713Z,11.00
2018-10-21T00:31:47.194Z,11.00
2018-10-21T00:34:15.718Z,11.00
2018-10-21T00:36:44.214Z,11.00
2018-10-21T00:39:14.084Z,11.00
2018-10-21T00:41:43.148Z,11.10
2018-10-21T00:44:11.878Z,11.10
2018-10-21T00:46:40.415Z,11.10
2018-10-21T00:49:09.693Z,11.10
2018-10-21T00:51:38.260Z,11.10
2018-10-21T00:54:12.150Z,11.10
2018-10-21T00:56:40.624Z,11.20
2018-10-21T00:59:09.706Z,11.20
2018-10-21T01:01:38.144Z,11.20
2018-10-21T01:04:06.925Z,11.20
2018-10-21T01:06:35.391Z,11.20
2018-10-21T01:09:04.943Z,11.20
2018-10-21T01:11:33.400Z,11.30
2018-10-21T01:14:01.867Z,11.30
2018-10-21T01:16:30.328Z,11.30
2018-10-21T01:18:58.829Z,11.40
2018-10-21T01:21:27.289Z,11.40
2018-10-21T01:23:55.748Z,11.40
2018-10-21T01:26:24.580Z,11.40
2018-10-21T01:28:53.374Z,11.40
2018-10-21T01:31:21.848Z,11.40
2018-10-21T01:33:51.120Z,11.50
2018-10-21T01:36:20.041Z,11.50
2018-10-21T01:38:48.179Z,11.50
2018-10-21T01:41:16.680Z,11.50
2018-10-21T01:43:45.130Z,11.50
2018-10-21T01:46:13.614Z,11.60
2018-10-21T01:48:42.129Z,11.50
2018-10-21T01:51:10.675Z,11.60
2018-10-21T01:53:39.162Z,11.60
2018-10-21T01:56:07.637Z,11.60
2018-10-21T01:58:36.106Z,11.60
2018-10-21T02:01:04.603Z,11.60
2018-10-21T02:03:33.118Z,11.50
2018-10-21T02:06:01.611Z,11.60
2018-10-21T02:08:30.094Z,11.50
2018-10-21T02:10:58.560Z,11.60
2018-10-21T02:13:27.024Z,11.60
2018-10-21T02:15:55.512Z,11.60
2018-10-21T02:18:23.966Z,11.60
2018-10-21T02:20:52.444Z,11.60
2018-10-21T02:23:20.880Z,11.60
2018-10-21T02:25:49.472Z,11.60
2018-10-21T02:28:17.931Z,11.60
2018-10-21T02:30:46.399Z,11.60
2018-10-21T02:33:14.951Z,11.70
2018-10-21T02:35:43.349Z,11.70
2018-10-21T02:38:11.814Z,11.70
2018-10-21T02:41:49.149Z,11.80
2018-10-21T02:44:20.811Z,11.80
2018-10-21T02:46:50.497Z,11.70
2018-10-21T02:49:19.618Z,11.80
2018-10-21T02:51:53.528Z,11.70
2018-10-21T02:54:31.042Z,11.80
2018-10-21T02:56:59.591Z,11.80
2018-10-21T02:59:28.370Z,11.80
2018-10-21T03:01:56.893Z,11.80
2018-10-21T03:04:25.367Z,11.90
2018-10-21T03:06:53.888Z,11.80
2018-10-21T03:09:22.590Z,11.80
2018-10-21T03:11:50.893Z,11.90
2018-10-21T03:14:19.378Z,11.90
2018-10-21T03:16:47.855Z,11.90
2018-10-21T03:19:16.316Z,11.90
2018-10-21T03:21:44.794Z,11.90
2018-10-21T03:24:13.297Z,11.90
2018-10-21T03:26:41.752Z,11.90
2018-10-21T03:29:10.250Z,11.90
2018-10-21T03:31:38.711Z,11.90
2018-10-21T03:34:07.286Z,11.90
2018-10-21T03:36:35.856Z,11.90
2018-10-21T03:39:06.281Z,11.90
2018-10-21T03:41:34.774Z,11.90
2018-10-21T03:44:03.560Z,11.90
2018-10-21T03:46:32.040Z,11.80
2018-10-21T03:49:00.541Z,11.90
2018-10-21T03:51:29.044Z,11.80
2018-10-21T03:53:57.552Z,11.80
2018-10-21T03:56:26.005Z,11.80
2018-10-21T03:58:54.482Z,11.80
2018-10-21T04:01:23.073Z,11.70
2018-10-21T04:03:51.652Z,11.70
2018-10-21T04:06:20.129Z,11.70
2018-10-21T04:08:48.616Z,11.60
2018-10-21T04:11:17.105Z,11.50
2018-10-21T04:13:45.646Z,11.40
2018-10-21T04:16:14.259Z,11.40
2018-10-21T04:18:42.632Z,11.20
2018-10-21T04:21:11.089Z,11.20
2018-10-21T04:23:39.592Z,11.10
2018-10-21T04:26:08.088Z,11.00
2018-10-21T04:28:36.589Z,10.90
2018-10-21T04:31:05.219Z,10.80
2018-10-21T04:33:49.460Z,10.70
2018-10-21T04:36:34.081Z,10.60
2018-10-21T04:39:19.574Z,10.60
2018-10-21T04:41:48.020Z,10.50
2018-10-21T04:44:16.485Z,10.40
2018-10-21T04:46:45.100Z,10.40
2018-10-21T04:49:13.464Z,10.30
2018-10-21T04:51:41.936Z,10.30
2018-10-21T04:54:10.374Z,10.20
2018-10-21T04:56:38.841Z,10.20
2018-10-21T04:59:07.319Z,10.10
2018-10-21T05:01:35.797Z,10.00
2018-10-21T05:04:04.284Z,10.00
2018-10-21T05:06:32.720Z,10.00
2018-10-21T05:09:01.170Z,9.90
2018-10-21T05:11:29.631Z,9.90
2018-10-21T05:13:58.133Z,9.80
2018-10-21T05:16:26.616Z,9.80
2018-10-21T05:18:55.056Z,9.70
2018-10-21T05:21:23.502Z,9.70
2018-10-21T05:23:52.016Z,9.70
2018-10-21T05:26:20.452Z,9.60
2018-10-21T05:28:49.057Z,9.60
2018-10-21T05:31:17.538Z,9.60
2018-10-21T05:33:45.997Z,9.60
2018-10-21T05:36:14.465Z,9.60
2018-10-21T05:38:42.924Z,9.60
2018-10-21T05:41:11.378Z,9.60
2018-10-21T05:43:39.831Z,9.60
2018-10-21T05:46:08.551Z,9.60
2018-10-21T05:48:36.995Z,9.60
2018-10-21T05:51:06.388Z,9.50
2018-10-21T05:53:34.848Z,9.50
2018-10-21T05:56:03.366Z,9.60
2018-10-21T05:58:31.896Z,9.60
2018-10-21T06:01:00.288Z,9.60
2018-10-21T06:03:28.768Z,9.60
2018-10-21T06:05:57.222Z,9.70
2018-10-21T06:08:25.699Z,9.70
2018-10-21T06:10:54.149Z,9.80
2018-10-21T06:13:22.592Z,9.90
2018-10-21T06:15:51.084Z,9.90
2018-10-21T06:18:22.591Z,10.00
2018-10-21T06:20:54.261Z,10.10
2018-10-21T06:23:22.717Z,10.20
2018-10-21T06:25:51.189Z,10.20
2018-10-21T06:28:19.653Z,10.30
2018-10-21T06:30:48.128Z,10.40
2018-10-21T06:33:16.735Z,10.50
2018-10-21T06:35:45.111Z,10.50
2018-10-21T06:38:13.611Z,10.60
2018-10-21T06:40:42.132Z,10.70
2018-10-21T06:43:10.671Z,10.80
2018-10-21T06:45:39.196Z,10.90
2018-10-21T06:48:07.619Z,11.00
2018-10-21T06:50:36.101Z,11.00
2018-10-21T06:53:04.562Z,11.10
2018-10-21T06:55:33.074Z,11.10
2018-10-21T06:58:01.544Z,11.20
2018-10-21T07:00:30.004Z,11.20
2018-10-21T07:02:58.494Z,11.30
2018-10-21T07:05:38.205Z,11.40
2018-10-21T07:08:06.680Z,11.40
2018-10-21T07:10:35.194Z,11.50
2018-10-21T07:13:03.686Z,11.60
2018-10-21T07:15:32.164Z,11.60
2018-10-21T07:18:00.610Z,11.70
2018-10-21T07:20:29.111Z,11.80
2018-10-21T07:22:57.582Z,11.90
2018-10-21T07:25:26.090Z,12.00
2018-10-21T07:27:54.624Z,12.00
2018-10-21T07:30:23.060Z,12.10
2018-10-21T07:32:51.539Z,12.20
2018-10-21T07:35:20.046Z,12.30
2018-10-21T07:37:48.540Z,12.30
2018-10-21T07:40:17.110Z,12.50
2018-10-21T07:42:45.512Z,12.60
2018-10-21T07:45:17.555Z,12.60
2018-10-21T07:47:46.035Z,12.70
2018-10-21T07:50:14.517Z,12.80
2018-10-21T07:52:43.003Z,12.90
2018-10-21T07:55:15.772Z,12.90
2018-10-21T07:57:44.247Z,13.00
2018-10-21T08:00:12.749Z,13.10
2018-10-21T08:02:41.254Z,13.10
2018-10-21T08:05:24.200Z,13.30
2018-10-21T08:08:04.024Z,13.30
2018-10-21T08:10:32.520Z,13.40
2018-10-21T08:13:01.025Z,13.50
2018-10-21T08:15:29.570Z,13.60
2018-10-21T08:17:58.053Z,13.60
2018-10-21T08:20:26.588Z,13.70
2018-10-21T08:22:55.109Z,13.70
2018-10-21T08:25:23.810Z,13.80
2018-10-21T08:27:52.246Z,13.80
2018-10-21T08:30:20.870Z,13.90
2018-10-21T08:32:49.669Z,13.90
2018-10-21T08:35:18.362Z,13.90
2018-10-21T08:37:46.974Z,13.90
2018-10-21T08:40:15.494Z,14.00
2018-10-21T08:42:43.950Z,14.00
2018-10-21T08:45:12.475Z,14.10
2018-10-21T08:47:41.473Z,14.20
2018-10-21T08:50:10.293Z,14.20
2018-10-21T08:52:38.804Z,14.30
2018-10-21T08:55:08.079Z,14.30
2018-10-21T08:57:36.641Z,14.40
2018-10-21T09:00:06.848Z,14.50
2018-10-21T09:02:35.313Z,14.60
2018-10-21T09:05:03.744Z,14.70
2018-10-21T09:07:32.240Z,14.80
2018-10-21T09:10:00.791Z,14.90
2018-10-21T09:12:29.277Z,15.00
2018-10-21T09:14:57.834Z,15.10
2018-10-21T09:17:26.521Z,15.10
2018-10-21T09:19:55.093Z,15.20
2018-10-21T09:22:23.601Z,15.10
2018-10-21T09:24:52.088Z,15.10
2018-10-21T09:27:20.902Z,15.20
2018-10-21T09:29:49.344Z,15.20
2018-10-21T09:32:17.845Z,15.20
2018-10-21T09:34:46.324Z,15.20
2018-10-21T09:37:14.878Z,15.30
2018-10-21T09:39:43.317Z,15.40
2018-10-21T09:42:11.842Z,15.50
2018-10-21T09:44:40.295Z,15.60
2018-10-21T09:47:08.748Z,15.60
2018-10-21T09:49:37.613Z,15.60
2018-10-21T09:52:06.196Z,15.80
2018-10-21T09:54:34.710Z,15.70
2018-10-21T09:57:03.168Z,15.80
2018-10-21T09:59:31.660Z,15.80
2018-10-21T10:02:05.467Z,15.80
2018-10-21T10:04:33.940Z,15.90
2018-10-21T10:07:06.744Z,15.90
2018-10-21T10:09:35.292Z,16.00
2018-10-21T10:12:03.853Z,16.00
2018-10-21T10:14:32.354Z,16.00
2018-10-21T10:17:00.839Z,16.10
2018-10-21T10:19:29.321Z,16.10
2018-10-21T10:22:11.069Z,16.20
2018-10-21T10:24:39.544Z,16.20
2018-10-21T10:27:08.094Z,16.20
2018-10-21T10:29:36.680Z,16.30
2018-10-21T10:32:05.165Z,16.40
2018-10-21T10:34:33.620Z,16.40
2018-10-21T10:37:02.154Z,16.50
2018-10-21T10:39:30.587Z,16.80
2018-10-21T10:41:59.460Z,16.80
2018-10-21T10:44:27.645Z,16.90
2018-10-21T10:46:56.115Z,17.10
2018-10-21T10:49:24.567Z,17.10
2018-10-21T10:51:53.053Z,17.00
2018-10-21T10:54:21.667Z,17.00
2018-10-21T10:56:50.120Z,16.90
2018-10-21T10:59:18.657Z,16.80
2018-10-21T11:01:47.200Z,16.70
2018-10-21T11:04:15.796Z,16.90
2018-10-21T11:06:44.127Z,17.00
2018-10-21T11:09:12.612Z,16.90
2018-10-21T11:11:41.420Z,17.10
2018-10-21T11:14:09.994Z,17.30
2018-10-21T11:16:38.592Z,17.40
2018-10-21T11:19:07.081Z,17.50
2018-10-21T11:24:57.622Z,17.60
2018-10-21T11:27:26.112Z,17.40
2018-10-21T11:29:54.766Z,17.40
2018-10-21T11:32:23.274Z,17.40
2018-10-21T11:34:56.656Z,17.50
2018-10-21T11:37:25.250Z,17.50
2018-10-21T11:39:53.790Z,17.40
2018-10-21T11:42:25.842Z,17.60
2018-10-21T11:44:54.450Z,17.70
2018-10-21T11:47:22.924Z,17.60
2018-10-21T11:49:51.852Z,17.40
2018-10-21T11:52:20.412Z,17.40
2018-10-21T11:54:48.928Z,17.50
2018-10-21T11:57:17.438Z,17.60
2018-10-21T11:59:45.916Z,17.70
2018-10-21T12:02:14.413Z,17.60
2018-10-21T12:04:42.884Z,17.70
2018-10-21T12:07:11.492Z,17.60
2018-10-21T12:09:40.177Z,17.70
2018-10-21T12:12:08.979Z,17.60
2018-10-21T12:14:37.473Z,17.50
2018-10-21T12:17:06.101Z,17.30
2018-10-21T12:19:34.552Z,17.40
2018-10-21T12:22:03.120Z,17.60
2018-10-21T12:24:31.587Z,17.60
2018-10-21T12:27:00.059Z,17.60
2018-10-21T12:29:28.577Z,17.70
2018-10-21T12:31:57.060Z,17.80
2018-10-21T12:34:25.533Z,17.70
2018-10-21T12:36:54.166Z,17.80
2018-10-21T12:39:22.675Z,17.90
2018-10-21T12:41:51.179Z,17.80
2018-10-21T12:44:19.677Z,17.70
2018-10-21T12:46:48.248Z,17.70
2018-10-21T12:49:16.814Z,17.60
2018-10-21T12:51:45.346Z,17.60
2018-10-21T12:54:13.903Z,17.60
2018-10-21T12:56:42.315Z,17.60
2018-10-21T12:59:10.953Z,17.70
2018-10-21T13:01:39.427Z,17.80
2018-10-21T13:04:08.007Z,17.80
2018-10-21T13:06:36.556Z,17.80
2018-10-21T13:09:07.200Z,17.80
2018-10-21T13:11:35.701Z,17.70
2018-10-21T13:14:04.346Z,17.80
2018-10-21T13:16:32.811Z,17.80
2018-10-21T13:19:01.299Z,17.60
2018-10-21T13:21:29.897Z,17.60
2018-10-21T13:23:58.370Z,17.60
2018-10-21T13:26:26.856Z,17.60
2018-10-21T13:28:55.527Z,17.60
2018-10-21T13:31:23.987Z,17.60
2018-10-21T13:33:52.488Z,17.60
2018-10-21T13:36:20.959Z,17.70
2018-10-21T13:38:49.587Z,17.60
2018-10-21T13:41:18.070Z,17.70
2018-10-21T13:43:46.630Z,17.70
2018-10-21T13:46:15.302Z,17.70
2018-10-21T13:48:43.753Z,17.50
2018-10-21T13:51:12.210Z,17.50
2018-10-21T13:53:40.648Z,17.50
2018-10-21T13:56:09.100Z,17.40
2018-10-21T13:58:37.637Z,17.50
2018-10-21T14:01:06.203Z,17.40
2018-10-21T14:03:34.639Z,17.40
2018-10-21T14:06:03.138Z,17.40
2018-10-21T14:08:31.595Z,17.30
2018-10-21T14:11:00.128Z,17.30
2018-10-21T14:13:28.619Z,17.20
2018-10-21T14:15:57.080Z,17.20
2018-10-21T14:18:25.657Z,17.20
2018-10-21T14:20:54.101Z,17.20
2018-10-21T14:23:22.571Z,17.10
2018-10-21T14:25:51.150Z,17.20
2018-10-21T14:28:19.617Z,17.10
2018-10-21T14:30:48.110Z,17.20
2018-10-21T14:33:16.688Z,17.20
2018-10-21T14:35:45.079Z,17.20
2018-10-21T14:38:13.601Z,17.20
2018-10-21T14:40:42.002Z,17.10
2018-10-21T14:50:17.714Z,17.00
2018-10-21T14:52:49.714Z,16.90
2018-10-21T14:55:18.222Z,16.90
2018-10-21T14:58:26.629Z,16.80
2018-10-21T15:00:55.136Z,16.70
2018-10-21T15:03:23.613Z,16.70
2018-10-21T15:09:14.532Z,16.60
2018-10-21T15:11:43.271Z,16.60
2018-10-21T15:14:12.436Z,16.50
2018-10-21T15:16:41.186Z,16.60
2018-10-21T15:19:12.846Z,16.50
2018-10-21T15:22:16.635Z,16.60
2018-10-21T15:24:45.064Z,16.50
2018-10-21T15:27:13.562Z,16.50
2018-10-21T15:29:42.018Z,16.50
2018-10-21T15:32:10.604Z,16.40
2018-10-21T15:38:00.963Z,16.40
2018-10-21T15:40:29.444Z,16.20
2018-10-21T15:42:58.126Z,16.20
2018-10-21T15:45:26.626Z,16.20
2018-10-21T15:47:55.086Z,16.20
2018-10-21T15:50:23.690Z,16.20
2018-10-21T15:52:52.167Z,16.10
2018-10-21T15:55:20.702Z,16.10
2018-10-21T15:57:49.219Z,16.00
2018-10-21T16:00:17.837Z,15.90
2018-10-21T16:02:46.304Z,15.90
2018-10-21T16:05:14.866Z,15.70
2018-10-21T16:07:43.350Z,15.70
2018-10-21T16:10:15.808Z,15.50
2018-10-21T16:12:45.035Z,15.50
2018-10-21T16:15:14.822Z,15.30
2018-10-21T16:17:44.037Z,15.20
2018-10-21T16:20:12.551Z,15.10
2018-10-21T16:22:45.380Z,14.90
2018-10-21T16:25:15.112Z,14.80
2018-10-21T16:27:43.776Z,14.60
2018-10-21T16:30:14.086Z,14.50
2018-10-21T16:32:43.315Z,14.30
2018-10-21T16:35:12.190Z,14.20
2018-10-21T16:37:41.291Z,14.10
2018-10-21T16:40:12.602Z,14.00
2018-10-21T16:42:41.329Z,13.90
2018-10-21T16:45:10.885Z,13.70
2018-10-21T16:47:39.728Z,13.60
2018-10-21T16:50:12.636Z,13.50
2018-10-21T16:52:42.065Z,13.40
2018-10-21T16:55:11.951Z,13.30
2018-10-21T16:57:40.591Z,13.10
2018-10-21T17:00:12.053Z,13.10
2018-10-21T17:02:40.691Z,13.00
2018-10-21T17:05:13.235Z,12.90
2018-10-21T17:38:35.414Z,12.00
2018-10-21T17:41:04.042Z,11.90
2018-10-21T17:43:32.569Z,11.90
2018-10-21T17:46:01.266Z,11.80
2018-10-21T17:48:29.751Z,11.70
2018-10-21T17:50:58.720Z,11.70
2018-10-21T17:53:27.603Z,11.60
2018-10-21T17:55:56.170Z,11.60
2018-10-21T17:58:25.175Z,11.50
2018-10-21T18:00:53.862Z,11.50
2018-10-21T18:03:22.650Z,11.40
2018-10-21T18:05:51.269Z,11.40
2018-10-21T18:08:19.944Z,11.30
2018-10-21T18:10:48.613Z,11.30
2018-10-21T18:13:17.482Z,11.20
2018-10-21T18:15:45.888Z,11.20
2018-10-21T18:18:14.641Z,11.20
2018-10-21T18:20:43.504Z,11.10
2018-10-21T18:23:12.247Z,11.10
2018-10-21T19:42:53.426Z,11.20
2018-10-21T19:45:22.131Z,11.10
2018-10-21T19:47:50.765Z,11.00
2018-10-21T19:50:19.389Z,10.90
2018-10-21T19:52:47.869Z,10.80
2018-10-21T19:55:16.614Z,10.80
2018-10-21T19:57:45.131Z,10.70
2018-10-21T20:00:15.251Z,10.70
2018-10-21T20:02:44.324Z,10.60
2018-10-21T20:05:13.010Z,10.60
2018-10-21T20:07:41.629Z,10.60
2018-10-21T20:10:12.146Z,10.50
2018-10-21T20:39:58.864Z,10.30
2018-10-21T20:42:27.358Z,10.30
2018-10-21T20:44:55.843Z,10.20
2018-10-21T20:47:24.332Z,10.20
2018-10-21T20:49:52.812Z,10.20
2018-10-21T20:52:21.421Z,10.20
2018-10-21T20:54:50.483Z,10.20
2018-10-21T20:57:19.109Z,10.20
2018-10-21T20:59:48.019Z,10.20
2018-10-21T21:02:17.103Z,10.20
2018-10-21T21:04:45.586Z,10.20
2018-10-21T21:07:14.070Z,10.20
2018-10-21T21:09:42.543Z,10.20
2018-10-21T21:12:11.052Z,10.20
2018-10-21T21:14:39.490Z,10.20
2018-10-21T21:17:08.035Z,10.20
2018-10-21T21:19:36.515Z,10.20
2018-10-21T21:22:05.047Z,10.10
2018-10-21T21:24:33.498Z,10.10
2018-10-21T21:27:02.008Z,10.20
2018-10-21T21:29:30.553Z,10.10
2018-10-21T21:31:59.196Z,10.20
2018-10-21T21:34:27.723Z,10.30
2018-10-21T21:36:56.229Z,10.40
2018-10-21T21:39:24.731Z,10.40
2018-10-21T21:41:53.247Z,10.50
2018-10-21T21:44:21.801Z,10.60
2018-10-21T21:46:50.332Z,10.70
2018-10-21T21:49:18.879Z,10.80
2018-10-21T21:51:47.383Z,10.80
2018-10-21T21:54:15.921Z,11.00
2018-10-21T21:56:46.006Z,11.00
2018-10-21T21:59:14.660Z,11.10
2018-10-21T22:01:43.138Z,11.20
2018-10-21T22:04:11.749Z,11.20
2018-10-21T22:06:40.181Z,11.30
2018-10-21T22:09:10.307Z,11.40
2018-10-21T22:11:39.155Z,11.50
2018-10-21T22:14:08.153Z,11.50
2018-10-21T22:16:36.788Z,11.60
2018-10-21T22:19:06.159Z,11.70
2018-10-21T22:21:35.204Z,11.70
2018-10-21T22:24:03.776Z,11.80
2018-10-21T22:26:32.191Z,11.80
2018-10-21T22:29:00.901Z,11.90
2018-10-21T22:31:29.376Z,11.90
2018-10-21T22:33:57.938Z,12.00
2018-10-21T22:36:26.665Z,12.00
2018-10-21T22:38:55.138Z,12.30
2018-10-21T22:41:23.740Z,12.50
2018-10-21T22:43:52.228Z,12.70
2018-10-21T22:46:20.719Z,12.80
2018-10-21T22:48:49.456Z,12.90
2018-10-21T22:51:17.944Z,13.50
2018-10-21T22:53:46.426Z,13.60
2018-10-21T22:56:15.533Z,13.90
2018-10-21T22:58:44.070Z,14.20
2018-10-21T23:01:12.589Z,14.30
2018-10-21T23:03:41.065Z,14.40
2018-10-21T23:06:09.679Z,14.50
2018-10-21T23:08:38.212Z,14.50
2018-10-21T23:11:06.709Z,14.60
2018-10-21T23:13:35.297Z,14.70
2018-10-21T23:16:03.892Z,14.80
2018-10-21T23:18:32.582Z,14.80
2018-10-21T23:21:01.055Z,14.80
2018-10-21T23:23:29.520Z,14.80
2018-10-21T23:25:57.983Z,14.80
2018-10-21T23:28:26.458Z,14.70
2018-10-21T23:30:54.925Z,14.80
2018-10-21T23:33:23.453Z,14.90
2018-10-21T23:35:51.903Z,14.90
2018-10-21T23:38:20.356Z,14.90
2018-10-21T23:40:48.831Z,14.90
2018-10-21T23:43:17.330Z,14.80
2018-10-21T23:45:45.828Z,14.80
2018-10-21T23:48:14.339Z,14.70
2018-10-21T23:50:42.773Z,14.70
2018-10-21T23:53:11.246Z,14.70
2018-10-21T23:55:39.725Z,14.70
2018-10-21T23:58:08.223Z,14.60
